Time;durP1;ratioP1;P1;durP2;ratioP2;P2;SDS_P1;SDS_P2;PMS_P1;PMS_P2;Temp;Humidity;BMP_temperature;BMP_pressure;BME280_temperature;BME280_humidity;BME280_pressure;Samples;Min_cycle;Max_cycle;Signal;HPM_P1;HPM_P2
2022/08/29 00:01:07;;;;;;;4.30;1.40;;;15.90;99.90;;;;;;5030433;28;20042;-36
2022/08/29 00:03:35;;;;;;;5.20;1.70;;;15.80;99.90;;;;;;5037170;28;20384;-36
2022/08/29 00:06:01;;;;;;;3.50;1.45;;;15.80;99.90;;;;;;5037123;28;20386;-45
2022/08/29 00:08:27;;;;;;;4.95;1.40;;;15.80;99.90;;;;;;5042027;28;20083;-36
2022/08/29 00:10:53;;;;;;;5.22;1.60;;;15.80;99.90;;;;;;5042636;28;20032;-36
2022/08/29 00:13:19;;;;;;;3.50;1.35;;;15.90;99.90;;;;;;5042262;28;20044;-36
2022/08/29 00:15:46;;;;;;;6.10;1.50;;;15.90;99.90;;;;;;5037386;28;20033;-35
2022/08/29 00:18:13;;;;;;;5.38;1.40;;;15.90;99.90;;;;;;5036759;28;20055;-36
2022/08/29 00:20:39;;;;;;;4.03;1.80;;;16.00;99.90;;;;;;5036681;28;20057;-36
2022/08/29 00:23:06;;;;;;;5.45;1.25;;;16.00;99.90;;;;;;5040003;28;20574;-36
2022/08/29 00:25:32;;;;;;;6.70;1.73;;;16.00;99.90;;;;;;5039222;28;20136;-37
2022/08/29 00:27:58;;;;;;;5.32;1.95;;;16.00;99.90;;;;;;5034045;28;20112;-35
2022/08/29 00:30:24;;;;;;;4.40;1.63;;;16.00;99.90;;;;;;5037009;28;20045;-36
2022/08/29 00:32:51;;;;;;;4.97;1.75;;;16.10;99.90;;;;;;5034300;28;20033;-36
2022/08/29 00:35:25;;;;;;;3.42;1.70;;;16.10;99.90;;;;;;5040332;28;20079;-36
2022/08/29 00:37:51;;;;;;;5.53;1.48;;;16.10;99.90;;;;;;5033488;28;20049;-36
2022/08/29 00:40:24;;;;;;;3.92;1.80;;;16.10;99.90;;;;;;5037522;28;20054;-36
2022/08/29 00:42:50;;;;;;;4.80;1.48;;;16.10;99.90;;;;;;5036550;28;20128;-36
2022/08/29 00:45:16;;;;;;;4.68;1.45;;;16.10;99.90;;;;;;5042648;28;20568;-36
2022/08/29 00:47:53;;;;;;;5.57;1.83;;;16.10;99.90;;;;;;5048483;28;20048;-36
2022/08/29 00:50:31;;;;;;;4.78;1.52;;;16.10;99.90;;;;;;5042663;28;20077;-35
2022/08/29 00:53:00;;;;;;;4.65;1.98;;;16.10;99.70;;;;;;5048729;28;20069;-39
2022/08/29 00:55:30;;;;;;;5.18;1.77;;;16.10;99.70;;;;;;5041308;28;20061;-35
2022/08/29 00:58:01;;;;;;;4.85;1.67;;;16.10;99.90;;;;;;5039646;28;20064;-36
2022/08/29 01:00:27;;;;;;;5.68;1.60;;;16.20;99.90;;;;;;5040041;28;20041;-36
2022/08/29 01:02:53;;;;;;;4.47;1.52;;;16.20;99.90;;;;;;5036240;28;20049;-36
2022/08/29 01:05:20;;;;;;;5.75;1.67;;;16.20;99.90;;;;;;5038506;28;20344;-37
2022/08/29 01:07:47;;;;;;;4.90;1.90;;;16.20;99.90;;;;;;5043537;28;21253;-36
2022/08/29 01:12:14;;;;;;;7.13;2.20;;;16.20;99.90;;;;;;5041199;28;20088;-37
2022/08/29 01:13:01;;;;;;;5.53;2.10;;;16.20;99.90;;;;;;5043033;28;20083;-35
2022/08/29 01:15:29;;;;;;;7.18;1.90;;;16.20;99.70;;;;;;5043332;28;20493;-38
2022/08/29 01:17:57;;;;;;;4.07;1.50;;;16.20;99.50;;;;;;5040090;28;20042;-36
2022/08/29 01:20:39;;;;;;;4.07;1.55;;;16.10;99.30;;;;;;5045328;28;20136;-36
2022/08/29 01:23:32;;;;;;;5.97;1.55;;;16.20;99.30;;;;;;5041853;28;20134;-36
2022/08/29 01:25:59;;;;;;;5.25;1.40;;;16.10;99.10;;;;;;5043659;28;20049;-36
2022/08/29 01:28:29;;;;;;;4.85;1.50;;;16.10;99.00;;;;;;5044115;28;20048;-35
2022/08/29 01:31:09;;;;;;;5.00;1.75;;;16.10;98.90;;;;;;5047919;28;20052;-35
2022/08/29 01:33:48;;;;;;;4.97;1.52;;;16.10;99.00;;;;;;5044302;28;20401;-35
2022/08/29 01:36:20;;;;;;;6.95;1.65;;;16.20;99.10;;;;;;5035266;28;20633;-36
2022/08/29 01:38:46;;;;;;;3.22;1.20;;;16.20;99.00;;;;;;5040790;28;20055;-36
2022/08/29 01:41:12;;;;;;;4.20;1.58;;;16.20;99.40;;;;;;5039815;28;20061;-35
2022/08/29 01:43:44;;;;;;;5.45;1.70;;;16.20;99.20;;;;;;5038165;28;20095;-36
2022/08/29 01:46:11;;;;;;;2.80;1.27;;;16.20;99.10;;;;;;5036661;28;21916;-35
2022/08/29 01:48:40;;;;;;;6.55;1.58;;;16.20;99.20;;;;;;5042823;28;20438;-35
2022/08/29 01:51:06;;;;;;;4.47;1.50;;;16.20;99.70;;;;;;5038742;28;20061;-36
2022/08/29 01:53:32;;;;;;;4.68;1.48;;;16.20;99.50;;;;;;5041983;28;20045;-36
2022/08/29 01:55:57;;;;;;;4.07;1.20;;;16.20;99.20;;;;;;5038655;28;20045;-36
2022/08/29 01:58:23;;;;;;;5.75;1.50;;;16.20;99.10;;;;;;5043584;28;20047;-37
2022/08/29 02:00:49;;;;;;;5.20;1.50;;;16.20;99.30;;;;;;5041358;28;20805;-37
2022/08/29 02:03:16;;;;;;;4.47;1.40;;;16.20;99.10;;;;;;5040016;28;20044;-37
2022/08/29 02:05:42;;;;;;;4.85;1.48;;;16.20;98.70;;;;;;5045528;28;20041;-36
2022/08/29 02:08:08;;;;;;;3.85;1.50;;;16.20;98.80;;;;;;5040325;28;20167;-36
2022/08/29 02:10:34;;;;;;;6.20;1.55;;;16.10;98.80;;;;;;5038218;28;20034;-37
2022/08/29 02:13:00;;;;;;;6.28;1.45;;;16.10;98.70;;;;;;5036919;28;20040;-36
2022/08/29 02:15:25;;;;;;;4.82;1.63;;;16.10;98.80;;;;;;5045797;28;20068;-36
2022/08/29 02:17:51;;;;;;;3.28;1.50;;;16.10;99.30;;;;;;5040001;28;20055;-36
2022/08/29 02:20:17;;;;;;;3.25;1.40;;;16.10;99.70;;;;;;5038376;28;20037;-36
2022/08/29 02:22:43;;;;;;;3.58;1.45;;;16.00;99.60;;;;;;5044396;28;20582;-36
2022/08/29 02:27:54;;;;;;;4.57;1.60;;;16.00;99.90;;;;;;5044270;28;20040;-37
2022/08/29 02:30:21;;;;;;;4.22;1.63;;;16.00;99.90;;;;;;5037266;28;20517;-36
2022/08/29 02:32:47;;;;;;;5.70;1.70;;;16.00;99.90;;;;;;5043291;28;20048;-37
2022/08/29 02:35:13;;;;;;;4.35;1.63;;;16.00;99.90;;;;;;5037146;28;20033;-37
2022/08/29 02:37:39;;;;;;;5.50;1.77;;;16.00;99.90;;;;;;5034631;28;20041;-36
2022/08/29 02:40:06;;;;;;;4.65;1.45;;;16.00;99.90;;;;;;5036711;28;20037;-36
2022/08/29 02:42:31;;;;;;;7.28;1.60;;;16.00;99.90;;;;;;5039621;28;20037;-36
2022/08/29 02:44:57;;;;;;;5.40;1.50;;;16.00;99.90;;;;;;5037450;28;20036;-36
2022/08/29 02:47:24;;;;;;;5.30;1.30;;;16.10;99.90;;;;;;5043907;28;20045;-35
2022/08/29 02:49:50;;;;;;;3.72;1.35;;;16.00;99.90;;;;;;5035033;28;20140;-36
2022/08/29 02:52:16;;;;;;;4.45;1.80;;;16.10;99.90;;;;;;5042354;28;20033;-36
2022/08/29 02:54:42;;;;;;;8.18;1.52;;;16.00;99.90;;;;;;5043414;28;20117;-36
2022/08/29 02:57:08;;;;;;;4.38;1.23;;;16.10;99.90;;;;;;5041252;28;20036;-36
2022/08/29 02:59:34;;;;;;;6.22;1.73;;;16.10;99.90;;;;;;5041335;28;20124;-37
2022/08/29 03:02:00;;;;;;;3.90;1.30;;;16.10;99.90;;;;;;5037481;28;20136;-36
2022/08/29 03:04:25;;;;;;;4.10;1.27;;;16.00;99.90;;;;;;5037838;28;20032;-36
2022/08/29 03:06:51;;;;;;;4.53;1.45;;;16.00;99.90;;;;;;5036512;28;20047;-36
2022/08/29 03:09:17;;;;;;;4.55;1.60;;;16.00;99.90;;;;;;5037004;28;20033;-36
2022/08/29 03:11:42;;;;;;;3.22;1.45;;;16.00;99.90;;;;;;5040818;28;20029;-35
2022/08/29 03:14:08;;;;;;;5.10;1.60;;;16.00;99.90;;;;;;5039305;28;20045;-36
2022/08/29 03:16:34;;;;;;;5.28;1.20;;;16.00;99.90;;;;;;5042693;28;20133;-36
2022/08/29 03:19:00;;;;;;;5.07;1.63;;;16.00;99.90;;;;;;5039809;28;20047;-39
2022/08/29 03:21:26;;;;;;;5.05;1.80;;;16.00;99.90;;;;;;5040134;28;20050;-37
2022/08/29 03:23:54;;;;;;;9.13;1.40;;;16.00;99.90;;;;;;5043503;28;20037;-36
2022/08/29 03:26:20;;;;;;;4.22;1.35;;;16.00;99.90;;;;;;5039354;28;20041;-36
2022/08/29 03:28:47;;;;;;;4.95;1.98;;;16.00;99.90;;;;;;5040235;28;20044;-36
2022/08/29 03:31:12;;;;;;;4.03;1.92;;;16.00;99.90;;;;;;5036841;28;20399;-36
2022/08/29 03:33:38;;;;;;;3.97;1.30;;;16.00;99.90;;;;;;5038659;28;20025;-36
2022/08/29 03:36:06;;;;;;;6.20;1.80;;;16.00;99.90;;;;;;5037266;28;20044;-36
2022/08/29 03:38:34;;;;;;;4.97;1.60;;;16.00;99.90;;;;;;5032831;28;20479;-36
2022/08/29 03:41:00;;;;;;;6.18;1.77;;;15.90;99.90;;;;;;5040218;28;20047;-36
2022/08/29 03:43:25;;;;;;;5.35;1.60;;;16.00;99.90;;;;;;5033393;28;20511;-36
2022/08/29 03:45:53;;;;;;;6.35;1.60;;;15.90;99.90;;;;;;5041503;28;20087;-35
2022/08/29 03:48:19;;;;;;;6.82;1.52;;;15.90;99.90;;;;;;5035565;28;20045;-35
2022/08/29 03:50:44;;;;;;;4.55;1.52;;;15.90;99.90;;;;;;5040047;28;20519;-36
2022/08/29 03:53:10;;;;;;;7.43;1.88;;;15.90;99.90;;;;;;5037902;28;20342;-36
2022/08/29 03:55:37;;;;;;;6.10;1.88;;;15.90;99.90;;;;;;5045076;28;20646;-36
2022/08/29 03:58:02;;;;;;;5.43;1.77;;;15.90;99.90;;;;;;5039974;28;20029;-36
2022/08/29 04:00:28;;;;;;;5.10;1.60;;;15.80;99.90;;;;;;5036689;28;20043;-36
2022/08/29 04:02:54;;;;;;;4.88;1.48;;;15.80;99.90;;;;;;5043375;28;20037;-36
2022/08/29 04:05:20;;;;;;;4.03;1.30;;;15.70;99.90;;;;;;5040602;28;20041;-36
2022/08/29 04:07:53;;;;;;;4.13;1.48;;;15.70;99.90;;;;;;5043379;28;20425;-36
2022/08/29 04:10:29;;;;;;;3.78;1.40;;;15.60;99.90;;;;;;5037485;28;20525;-36
2022/08/29 04:12:55;;;;;;;6.50;1.67;;;15.60;99.90;;;;;;5040111;28;20043;-36
2022/08/29 04:15:22;;;;;;;6.55;1.88;;;15.60;99.90;;;;;;5037062;28;21738;-36
2022/08/29 04:17:52;;;;;;;5.32;1.73;;;15.60;99.90;;;;;;5042019;28;20509;-36
2022/08/29 04:20:18;;;;;;;5.03;1.83;;;15.50;99.90;;;;;;5038484;28;20041;-36
2022/08/29 04:22:44;;;;;;;6.38;1.90;;;15.50;99.90;;;;;;5038255;28;20406;-36
2022/08/29 04:25:12;;;;;;;5.13;1.73;;;15.40;99.90;;;;;;5042860;28;20052;-36
2022/08/29 04:27:38;;;;;;;4.93;1.45;;;15.40;99.90;;;;;;5044528;28;20482;-37
2022/08/29 04:30:09;;;;;;;6.80;1.98;;;15.40;99.90;;;;;;5034552;28;20128;-37
2022/08/29 04:32:34;;;;;;;4.47;1.40;;;15.50;99.90;;;;;;5040492;28;20091;-36
2022/08/29 04:35:00;;;;;;;4.20;1.58;;;15.50;99.90;;;;;;5034952;28;20390;-36
2022/08/29 04:37:26;;;;;;;4.03;1.65;;;15.50;99.90;;;;;;5036592;28;20102;-36
2022/08/29 04:39:53;;;;;;;3.88;1.48;;;15.50;99.90;;;;;;5039729;28;20452;-36
2022/08/29 04:42:19;;;;;;;4.50;1.55;;;15.50;99.90;;;;;;5033886;28;20037;-36
2022/08/29 04:44:46;;;;;;;3.17;1.40;;;15.50;99.90;;;;;;5040593;28;20514;-36
2022/08/29 04:47:12;;;;;;;4.75;1.52;;;15.50;99.90;;;;;;5036091;28;20573;-36
2022/08/29 04:49:38;;;;;;;3.65;1.30;;;15.50;99.90;;;;;;5036522;28;20037;-37
2022/08/29 04:52:04;;;;;;;5.05;1.40;;;15.50;99.90;;;;;;5042634;28;20458;-36
2022/08/29 04:54:30;;;;;;;6.43;1.58;;;15.50;99.90;;;;;;5034806;28;20037;-36
2022/08/29 04:57:00;;;;;;;10.55;1.90;;;15.50;99.90;;;;;;5039690;28;20033;-36
2022/08/29 04:59:25;;;;;;;5.72;1.50;;;15.50;99.90;;;;;;5034527;28;20060;-37
2022/08/29 05:01:51;;;;;;;7.97;2.05;;;15.50;99.90;;;;;;5035988;28;20467;-36
2022/08/29 05:04:17;;;;;;;6.13;2.13;;;15.50;99.90;;;;;;5043303;28;20037;-37
2022/08/29 05:06:42;;;;;;;8.32;2.20;;;15.50;99.90;;;;;;5038458;28;20049;-37
2022/08/29 05:09:08;;;;;;;5.18;1.80;;;15.60;99.90;;;;;;5041177;28;20048;-37
2022/08/29 05:11:33;;;;;;;5.88;1.83;;;15.60;99.90;;;;;;5036622;28;20045;-36
2022/08/29 05:14:00;;;;;;;4.53;1.73;;;15.60;99.90;;;;;;5043272;28;21659;-36
2022/08/29 05:16:26;;;;;;;6.25;1.55;;;15.50;99.90;;;;;;5037941;28;20494;-36
2022/08/29 05:18:51;;;;;;;4.20;1.48;;;15.50;99.90;;;;;;5036635;28;20044;-36
2022/08/29 05:21:26;;;;;;;3.53;1.60;;;15.40;99.90;;;;;;5031192;28;20386;-36
2022/08/29 05:23:55;;;;;;;4.10;1.40;;;15.40;99.90;;;;;;5033707;28;20060;-36
2022/08/29 05:26:21;;;;;;;7.55;1.75;;;15.40;99.90;;;;;;5042920;28;20068;-37
2022/08/29 05:28:46;;;;;;;2.67;1.13;;;15.40;99.90;;;;;;5037437;28;20486;-36
2022/08/29 05:31:13;;;;;;;6.75;1.40;;;15.40;99.90;;;;;;5036019;28;20033;-35
2022/08/29 05:33:39;;;;;;;5.68;1.27;;;15.50;99.90;;;;;;5039414;28;20513;-36
2022/08/29 05:36:06;;;;;;;6.78;1.50;;;15.50;99.90;;;;;;5041007;28;20606;-36
2022/08/29 05:38:32;;;;;;;3.70;1.40;;;15.60;99.90;;;;;;5038419;28;20478;-36
2022/08/29 05:40:58;;;;;;;4.35;1.50;;;15.60;99.90;;;;;;5039132;28;20048;-37
2022/08/29 05:43:24;;;;;;;4.32;1.70;;;15.60;99.90;;;;;;5036484;28;20048;-36
2022/08/29 05:45:49;;;;;;;3.95;1.65;;;15.60;99.90;;;;;;5040166;28;20049;-36
2022/08/29 05:48:17;;;;;;;5.60;1.65;;;15.70;99.90;;;;;;5036371;28;20398;-35
2022/08/29 05:50:43;;;;;;;5.13;1.60;;;15.70;99.90;;;;;;5039807;28;20045;-35
2022/08/29 05:53:15;;;;;;;4.35;1.60;;;15.80;99.90;;;;;;5039344;28;20052;-34
2022/08/29 05:55:42;;;;;;;4.20;1.43;;;15.80;99.90;;;;;;5043584;28;20110;-35
2022/08/29 05:58:08;;;;;;;5.80;1.33;;;15.90;99.90;;;;;;5036227;28;20331;-36
2022/08/29 06:00:40;;;;;;;3.35;1.30;;;16.00;99.90;;;;;;5041602;28;20049;-35
2022/08/29 06:03:06;;;;;;;6.30;1.00;;;16.00;99.90;;;;;;5038063;28;20052;-36
2022/08/29 06:05:34;;;;;;;5.95;1.40;;;16.10;99.90;;;;;;5039277;28;20099;-35
2022/08/29 06:08:00;;;;;;;6.00;1.38;;;16.10;99.90;;;;;;5041533;28;20485;-35
2022/08/29 06:10:26;;;;;;;5.68;1.38;;;16.10;99.90;;;;;;5035175;28;20506;-34
2022/08/29 06:12:51;;;;;;;4.53;1.33;;;16.10;99.90;;;;;;5038326;28;20029;-35
2022/08/29 06:15:17;;;;;;;5.35;1.40;;;16.20;99.90;;;;;;5043854;28;20122;-35
2022/08/29 06:17:43;;;;;;;4.05;1.45;;;16.30;99.90;;;;;;5039011;28;20037;-35
2022/08/29 06:20:09;;;;;;;6.22;1.45;;;16.30;99.90;;;;;;5042821;28;20029;-36
2022/08/29 06:22:37;;;;;;;4.95;1.38;;;16.30;99.90;;;;;;5036003;28;20144;-37
2022/08/29 06:25:04;;;;;;;5.30;1.92;;;16.40;99.90;;;;;;5036899;28;20042;-36
2022/08/29 06:27:30;;;;;;;7.10;1.42;;;16.50;99.90;;;;;;5041508;28;20128;-35
2022/08/29 06:29:55;;;;;;;6.28;1.67;;;16.50;99.90;;;;;;5038133;28;20129;-35
2022/08/29 06:32:22;;;;;;;7.70;1.40;;;16.50;99.90;;;;;;5035788;28;20494;-34
2022/08/29 06:34:47;;;;;;;5.70;1.45;;;16.60;99.90;;;;;;5037696;28;20032;-35
2022/08/29 06:37:13;;;;;;;6.75;1.63;;;16.70;99.90;;;;;;5038340;28;20025;-37
2022/08/29 06:39:39;;;;;;;6.93;1.40;;;16.70;99.90;;;;;;5040524;28;20048;-35
2022/08/29 06:42:05;;;;;;;6.40;1.55;;;16.70;99.90;;;;;;5044659;28;20045;-34
2022/08/29 06:44:30;;;;;;;4.15;1.60;;;16.70;99.90;;;;;;5043003;28;20530;-35
2022/08/29 06:46:57;;;;;;;5.78;1.67;;;16.70;99.90;;;;;;5043960;28;20041;-36
2022/08/29 06:49:23;;;;;;;8.40;1.60;;;16.70;99.90;;;;;;5036577;28;20083;-35
2022/08/29 06:51:53;;;;;;;5.85;1.58;;;16.70;99.90;;;;;;5042771;28;20029;-35
2022/08/29 06:54:21;;;;;;;11.32;2.25;;;16.80;99.90;;;;;;5039178;28;20402;-35
2022/08/29 06:56:48;;;;;;;5.15;2.30;;;16.80;99.90;;;;;;5038941;28;20045;-35
2022/08/29 06:59:14;;;;;;;7.82;1.65;;;16.80;99.90;;;;;;5038966;28;20025;-35
2022/08/29 07:01:41;;;;;;;6.05;1.52;;;16.90;99.90;;;;;;5034955;28;20072;-35
2022/08/29 07:04:08;;;;;;;6.18;1.70;;;16.90;99.90;;;;;;5041606;28;20063;-35
2022/08/29 07:06:36;;;;;;;5.97;1.35;;;17.00;99.90;;;;;;5038983;28;20036;-35
2022/08/29 07:09:02;;;;;;;3.22;1.25;;;17.00;99.90;;;;;;5037752;28;20049;-35
2022/08/29 07:11:29;;;;;;;5.88;1.55;;;17.00;99.90;;;;;;5038812;28;20444;-35
2022/08/29 07:13:57;;;;;;;7.13;1.67;;;17.20;99.90;;;;;;5036391;28;20061;-35
2022/08/29 07:16:23;;;;;;;7.03;1.73;;;17.20;99.90;;;;;;5034552;28;20049;-36
2022/08/29 07:18:49;;;;;;;5.30;1.70;;;17.30;99.90;;;;;;5037000;28;20073;-36
2022/08/29 07:21:17;;;;;;;8.05;1.67;;;17.40;99.90;;;;;;5039179;28;20077;-35
2022/08/29 07:23:42;;;;;;;5.72;1.60;;;17.40;99.90;;;;;;5039505;28;20132;-35
2022/08/29 07:26:14;;;;;;;5.07;1.67;;;17.50;99.90;;;;;;5038592;28;20119;-35
2022/08/29 07:28:41;;;;;;;5.50;1.83;;;17.60;99.90;;;;;;5040109;28;20041;-36
2022/08/29 07:31:07;;;;;;;8.25;1.73;;;17.70;99.90;;;;;;5040549;28;20045;-35
2022/08/29 07:33:33;;;;;;;6.35;1.48;;;17.80;99.90;;;;;;5044229;28;20033;-35
2022/08/29 07:36:00;;;;;;;5.22;1.55;;;17.90;99.90;;;;;;5042273;28;20120;-35
2022/08/29 07:38:29;;;;;;;3.03;1.30;;;18.00;99.90;;;;;;5040223;28;20068;-35
2022/08/29 07:41:04;;;;;;;8.88;1.42;;;18.10;99.90;;;;;;5036279;28;20577;-35
2022/08/29 07:43:30;;;;;;;8.00;1.83;;;18.30;99.90;;;;;;5040917;28;20059;-35
2022/08/29 07:45:56;;;;;;;4.65;1.65;;;18.50;99.90;;;;;;5038006;28;20156;-35
2022/08/29 07:48:23;;;;;;;7.00;1.38;;;18.60;99.90;;;;;;5043425;28;20120;-36
2022/08/29 07:50:49;;;;;;;5.45;1.65;;;18.60;99.90;;;;;;5047016;28;20037;-35
2022/08/29 07:53:15;;;;;;;9.90;1.85;;;18.80;99.90;;;;;;5036846;28;20075;-35
2022/08/29 07:55:41;;;;;;;5.10;1.27;;;18.90;99.50;;;;;;5037273;28;20044;-36
2022/08/29 07:58:07;;;;;;;3.45;1.50;;;19.00;99.20;;;;;;5036851;28;20029;-36
2022/08/29 08:00:33;;;;;;;9.07;1.40;;;19.00;99.10;;;;;;5039279;28;20505;-36
2022/08/29 08:02:59;;;;;;;3.70;0.93;;;19.10;99.20;;;;;;5033731;28;20044;-35
2022/08/29 08:05:25;;;;;;;7.35;0.90;;;19.20;98.90;;;;;;5030805;28;20366;-34
2022/08/29 08:07:54;;;;;;;4.70;1.48;;;19.20;98.90;;;;;;5040050;28;20076;-34
2022/08/29 08:10:20;;;;;;;9.32;1.40;;;19.30;98.60;;;;;;5040664;28;20033;-34
2022/08/29 08:12:47;;;;;;;10.10;2.28;;;19.40;98.10;;;;;;5043450;28;20052;-35
2022/08/29 08:15:14;;;;;;;9.52;1.17;;;19.50;97.60;;;;;;5033364;28;20403;-35
2022/08/29 08:17:40;;;;;;;3.92;0.90;;;19.60;97.40;;;;;;5038465;28;20617;-35
2022/08/29 08:20:07;;;;;;;7.18;1.05;;;19.50;97.40;;;;;;5038521;28;20079;-36
2022/08/29 08:22:34;;;;;;;4.55;0.90;;;19.50;97.40;;;;;;5036064;28;20166;-36
2022/08/29 08:25:00;;;;;;;6.97;0.90;;;19.60;97.30;;;;;;5043598;28;20037;-35
2022/08/29 08:27:25;;;;;;;3.55;1.33;;;19.50;97.10;;;;;;5035687;28;20091;-35
2022/08/29 08:29:51;;;;;;;8.23;0.98;;;19.60;96.80;;;;;;5040724;28;20135;-36
2022/08/29 08:32:17;;;;;;;5.57;1.25;;;19.60;96.70;;;;;;5035659;28;20475;-35
2022/08/29 08:34:43;;;;;;;5.13;0.80;;;19.80;96.80;;;;;;5033732;28;20175;-35
2022/08/29 08:37:09;;;;;;;5.68;1.08;;;19.90;96.40;;;;;;5035762;28;20033;-38
2022/08/29 08:39:36;;;;;;;4.07;0.88;;;19.90;96.00;;;;;;5039507;28;20128;-35
2022/08/29 08:42:19;;;;;;;4.57;0.80;;;20.00;95.70;;;;;;5034695;28;20507;-36
2022/08/29 08:45:26;;;;;;;5.35;0.90;;;20.10;95.40;;;;;;5035313;28;20041;-35
2022/08/29 08:47:57;;;;;;;4.65;0.70;;;20.10;95.20;;;;;;4989526;28;20053;-36
2022/08/29 08:50:27;;;;;;;4.38;1.00;;;20.20;95.10;;;;;;4999989;28;20053;-35
2022/08/29 08:53:18;;;;;;;3.88;1.08;;;20.30;94.80;;;;;;5022462;28;20506;-35
2022/08/29 08:55:53;;;;;;;8.82;1.15;;;20.50;94.50;;;;;;5034497;28;20040;-35
2022/08/29 08:58:43;;;;;;;7.10;0.95;;;20.60;94.20;;;;;;5038985;28;20037;-36
2022/08/29 09:01:31;;;;;;;5.05;0.90;;;20.70;93.60;;;;;;5036904;28;20073;-35
2022/08/29 09:04:19;;;;;;;3.50;0.75;;;20.90;92.70;;;;;;5038716;28;20037;-37
2022/08/29 09:07:07;;;;;;;5.68;0.80;;;21.00;92.20;;;;;;5042947;28;20487;-35
2022/08/29 09:09:51;;;;;;;4.70;1.08;;;21.10;91.70;;;;;;5041486;28;20507;-35
2022/08/29 09:12:45;;;;;;;3.15;1.17;;;21.20;92.40;;;;;;5040655;28;20093;-36
2022/08/29 09:15:18;;;;;;;4.32;1.05;;;21.20;91.50;;;;;;5042960;28;20037;-35
2022/08/29 09:18:01;;;;;;;2.15;0.63;;;21.20;91.20;;;;;;5037826;28;20570;-36
2022/08/29 09:20:30;;;;;;;4.68;0.88;;;21.20;91.20;;;;;;5039555;28;20088;-35
2022/08/29 09:23:19;;;;;;;2.63;0.70;;;21.30;90.80;;;;;;5040411;28;20645;-35
2022/08/29 09:25:46;;;;;;;2.95;0.80;;;21.40;90.30;;;;;;5041043;28;20618;-36
2022/08/29 09:28:12;;;;;;;5.40;0.80;;;21.60;90.40;;;;;;5037506;28;20164;-36
2022/08/29 09:30:41;;;;;;;2.47;0.80;;;21.90;90.00;;;;;;5043482;28;20483;-36
2022/08/29 09:33:10;;;;;;;6.57;0.98;;;22.00;88.90;;;;;;5044805;28;20065;-37
2022/08/29 09:35:42;;;;;;;5.35;1.23;;;22.10;88.00;;;;;;5042266;28;20041;-41
2022/08/29 09:38:16;;;;;;;3.15;0.70;;;22.00;87.60;;;;;;5044237;28;20038;-42
2022/08/29 09:41:06;;;;;;;3.75;0.90;;;22.00;87.60;;;;;;5040474;28;20049;-39
2022/08/29 09:43:38;;;;;;;3.83;0.80;;;22.10;87.00;;;;;;5044730;28;20127;-39
2022/08/29 09:46:10;;;;;;;4.38;1.00;;;22.10;87.00;;;;;;5040334;28;20068;-42
2022/08/29 09:48:42;;;;;;;4.05;1.17;;;22.20;86.70;;;;;;5037450;28;20398;-38
2022/08/29 09:51:11;;;;;;;6.10;1.00;;;22.10;86.80;;;;;;5035702;28;20045;-39
2022/08/29 09:53:37;;;;;;;7.10;1.63;;;22.00;87.20;;;;;;5043627;28;20640;-40
2022/08/29 09:56:14;;;;;;;5.65;0.98;;;22.00;87.90;;;;;;5049457;28;20086;-37
2022/08/29 09:58:41;;;;;;;4.55;1.15;;;21.90;88.30;;;;;;5041329;28;20069;-36
2022/08/29 10:01:20;;;;;;;4.97;1.30;;;21.90;88.80;;;;;;5042547;28;20045;-38
2022/08/29 10:03:57;;;;;;;4.50;1.02;;;22.10;88.40;;;;;;5038872;28;20415;-37
2022/08/29 10:06:26;;;;;;;4.60;0.75;;;22.10;88.00;;;;;;5042092;28;20055;-37
2022/08/29 10:09:00;;;;;;;4.13;1.08;;;22.20;87.70;;;;;;5037223;28;20068;-37
2022/08/29 10:11:52;;;;;;;2.47;0.75;;;22.20;86.70;;;;;;5039981;28;20041;-37
2022/08/29 10:14:42;;;;;;;4.78;1.10;;;22.30;86.10;;;;;;5044391;28;20179;-36
2022/08/29 10:20:51;;;;;;;2.88;0.80;;;22.50;85.50;;;;;;5031200;28;20044;-37
2022/08/29 10:23:31;;;;;;;3.90;1.20;;;22.60;84.70;;;;;;5042997;28;20564;-39
2022/08/29 10:26:04;;;;;;;3.42;0.90;;;22.80;83.90;;;;;;5045204;28;20044;-37
2022/08/29 10:29:11;;;;;;;2.88;1.00;;;23.10;83.40;;;;;;5040508;28;20041;-37
2022/08/29 10:32:03;;;;;;;5.55;0.70;;;23.60;79.40;;;;;;5030067;28;20057;-36
2022/08/29 10:34:51;;;;;;;4.13;1.02;;;24.00;78.00;;;;;;5035167;28;20054;-35
2022/08/29 10:37:45;;;;;;;2.63;0.73;;;24.20;72.20;;;;;;5043477;28;20405;-54
2022/08/29 10:40:22;;;;;;;2.75;0.80;;;24.40;73.50;;;;;;5040538;28;20034;-37
2022/08/29 10:42:56;;;;;;;6.00;1.20;;;24.70;72.20;;;;;;5039661;28;20110;-36
2022/08/29 10:45:57;;;;;;;4.65;0.77;;;24.90;71.00;;;;;;5042165;28;20067;-36
2022/08/29 10:48:29;;;;;;;3.65;0.75;;;24.80;69.70;;;;;;5036899;28;20041;-36
2022/08/29 10:51:15;;;;;;;3.83;1.00;;;24.60;71.90;;;;;;5036614;28;20453;-36
2022/08/29 10:53:46;;;;;;;3.25;0.90;;;24.30;71.40;;;;;;5039665;28;20043;-37
2022/08/29 10:56:34;;;;;;;2.28;0.90;;;24.20;73.70;;;;;;5046680;28;20040;-36
2022/08/29 10:59:20;;;;;;;3.03;1.45;;;24.10;72.70;;;;;;5041547;28;20048;-37
2022/08/29 11:02:31;;;;;;;5.32;0.88;;;23.90;74.40;;;;;;5038177;28;20036;-37
2022/08/29 11:05:02;;;;;;;2.40;0.70;;;24.00;76.00;;;;;;5038595;28;20040;-37
2022/08/29 11:07:42;;;;;;;4.20;0.83;;;24.30;75.50;;;;;;5039996;28;20099;-35
2022/08/29 11:10:16;;;;;;;6.63;1.10;;;24.60;73.60;;;;;;5039557;28;20444;-36
2022/08/29 11:13:00;;;;;;;6.93;1.27;;;24.70;72.90;;;;;;5034619;28;20120;-35
2022/08/29 11:15:37;;;;;;;2.97;1.05;;;24.50;72.60;;;;;;5039312;28;20041;-36
2022/08/29 11:18:10;;;;;;;4.03;1.00;;;24.40;73.30;;;;;;5043578;28;20128;-35
2022/08/29 11:20:45;;;;;;;2.88;0.88;;;24.20;73.00;;;;;;5039544;28;20572;-35
2022/08/29 11:23:45;;;;;;;4.88;1.10;;;24.00;73.20;;;;;;5038857;28;20072;-36
2022/08/29 11:26:40;;;;;;;4.53;0.88;;;24.00;73.80;;;;;;5041348;28;20050;-35
2022/08/29 11:29:35;;;;;;;4.72;1.00;;;23.90;74.90;;;;;;5044964;28;20033;-35
2022/08/29 11:32:19;;;;;;;6.38;0.80;;;23.80;74.80;;;;;;5036413;28;20041;-36
2022/08/29 11:34:45;;;;;;;4.07;0.90;;;23.80;75.00;;;;;;5044848;28;20033;-36
2022/08/29 11:37:13;;;;;;;5.90;1.20;;;23.80;75.80;;;;;;5038933;28;20394;-41
2022/08/29 11:39:53;;;;;;;4.28;1.00;;;23.90;75.60;;;;;;5035684;28;20056;-41
2022/08/29 11:42:26;;;;;;;3.72;1.40;;;24.10;75.90;;;;;;5035195;28;20076;-42
2022/08/29 11:44:52;;;;;;;;;;;24.20;74.70;;;;;;5035498;28;20037;-41
2022/08/29 11:47:45;;;;;;;9.18;1.40;;;24.10;73.50;;;;;;5041689;28;19927;-40
2022/08/29 11:50:20;;;;;;;5.25;0.90;;;23.90;74.60;;;;;;5038814;28;20495;-40
2022/08/29 11:53:09;;;;;;;4.28;1.10;;;23.90;75.90;;;;;;5035972;28;20091;-38
2022/08/29 11:55:36;;;;;;;6.90;1.30;;;24.00;74.70;;;;;;5036832;28;20267;-41
2022/08/29 11:58:12;;;;;;;5.75;1.48;;;24.10;74.20;;;;;;5039253;28;20032;-38
2022/08/29 12:00:55;;;;;;;7.93;1.40;;;24.20;72.40;;;;;;5039667;28;20213;-41
2022/08/29 12:03:33;;;;;;;8.55;1.25;;;24.20;72.50;;;;;;5035964;28;20037;-42
2022/08/29 12:06:33;;;;;;;7.38;1.23;;;24.20;72.10;;;;;;5043813;28;20047;-39
2022/08/29 12:09:24;;;;;;;4.30;0.93;;;24.30;71.30;;;;;;5039876;28;20047;-40
2022/08/29 12:12:04;;;;;;;5.25;1.00;;;24.40;67.40;;;;;;5038977;28;20068;-40
2022/08/29 12:14:34;;;;;;;4.63;1.10;;;24.60;68.60;;;;;;5042784;28;20040;-39
2022/08/29 12:17:02;;;;;;;4.18;0.82;;;24.90;67.30;;;;;;5035990;28;20128;-41
2022/08/29 12:19:52;;;;;;;3.65;1.17;;;24.90;64.40;;;;;;5046464;28;20036;-40
2022/08/29 12:22:42;;;;;;;2.60;1.05;;;24.80;63.80;;;;;;5035226;28;20103;-40
2022/08/29 12:25:31;;;;;;;2.95;1.00;;;24.70;64.20;;;;;;5037424;28;20044;-40
2022/08/29 12:28:25;;;;;;;5.78;1.20;;;24.60;66.60;;;;;;5032933;28;20053;-41
2022/08/29 12:30:57;;;;;;;2.30;0.95;;;24.50;67.30;;;;;;5032860;28;20060;-43
2022/08/29 12:33:35;;;;;;;3.08;1.00;;;24.50;68.80;;;;;;5043090;28;20036;-39
2022/08/29 12:36:29;;;;;;;3.20;1.10;;;24.50;66.10;;;;;;5038594;28;20052;-41
2022/08/29 12:39:14;;;;;;;4.05;0.90;;;24.50;65.30;;;;;;5044536;28;20033;-40
2022/08/29 12:42:11;;;;;;;4.15;0.82;;;24.40;67.80;;;;;;5040386;28;20048;-38
2022/08/29 12:44:47;;;;;;;4.70;1.13;;;24.40;68.20;;;;;;5041060;28;20045;-42
2022/08/29 12:47:25;;;;;;;5.30;1.35;;;24.30;69.40;;;;;;5041704;28;20440;-40
2022/08/29 12:49:58;;;;;;;4.60;1.10;;;24.20;71.30;;;;;;5044911;28;20048;-39
2022/08/29 12:52:36;;;;;;;2.10;1.00;;;24.10;71.80;;;;;;5039598;28;21027;-38
2022/08/29 12:55:23;;;;;;;5.32;1.60;;;24.00;72.50;;;;;;5040270;28;20072;-40
2022/08/29 12:57:50;;;;;;;4.65;1.40;;;23.90;73.40;;;;;;5042368;28;20045;-38
2022/08/29 13:00:27;;;;;;;6.88;1.50;;;23.70;74.50;;;;;;5041301;28;20389;-41
2022/08/29 13:03:16;;;;;;;6.72;1.45;;;23.70;75.50;;;;;;5047340;28;20052;-41
2022/08/29 13:05:42;;;;;;;5.43;1.23;;;23.60;75.00;;;;;;5041451;28;20120;-38
2022/08/29 13:08:13;;;;;;;6.78;1.20;;;23.60;76.00;;;;;;5046955;28;20033;-39
2022/08/29 13:10:56;;;;;;;5.57;1.23;;;23.60;74.80;;;;;;5044340;28;20045;-40
2022/08/29 13:13:22;;;;;;;5.57;1.27;;;23.60;74.10;;;;;;5043906;28;20280;-41
2022/08/29 13:15:50;;;;;;;3.80;1.20;;;23.50;75.20;;;;;;5041756;28;20037;-38